createdAt,value
2023-01-04T00:01:48.991Z,101525.50
2023-01-04T00:04:51.725Z,101528.16
2023-01-04T00:07:56.834Z,101516.53
2023-01-04T00:11:03.322Z,101506.72
2023-01-04T00:14:06.068Z,101504.94
2023-01-04T00:17:08.966Z,101501.38
2023-01-04T00:20:11.965Z,101492.44
2023-01-04T00:23:20.881Z,101495.13
2023-01-04T00:26:26.737Z,101500.50
2023-01-04T00:29:36.677Z,101489.78
2023-01-04T00:32:39.348Z,101492.44
2023-01-04T00:35:46.407Z,101496.91
2023-01-04T00:39:07.057Z,101504.97
2023-01-04T00:42:14.723Z,101505.84
2023-01-04T00:45:17.369Z,101488.88
2023-01-04T00:48:23.166Z,101487.06
2023-01-04T00:51:26.005Z,101497.78
2023-01-04T00:54:28.821Z,101498.72
2023-01-04T00:57:35.590Z,101482.59
2023-01-04T01:00:39.293Z,101484.41
2023-01-04T01:03:43.670Z,101483.53
2023-01-04T01:06:46.834Z,101478.13
2023-01-04T01:09:49.514Z,101477.25
2023-01-04T01:12:53.701Z,101484.38
2023-01-04T01:15:56.499Z,101478.13
2023-01-04T01:18:59.456Z,101474.59
2023-01-04T01:22:02.148Z,101476.38
2023-01-04T01:25:05.509Z,101479.03
2023-01-04T01:28:09.805Z,101484.41
2023-01-04T01:31:15.337Z,101483.50
2023-01-04T01:34:18.051Z,101479.03
2023-01-04T01:37:20.758Z,101471.88
2023-01-04T01:40:23.425Z,101475.44
2023-01-04T01:43:52.899Z,101473.66
2023-01-04T01:46:58.339Z,101455.78
2023-01-04T01:50:04.974Z,101435.25
2023-01-04T01:53:10.034Z,101454.88
2023-01-04T01:56:16.832Z,101449.53
2023-01-04T01:59:22.380Z,101454.00
2023-01-04T02:02:25.922Z,101453.97
2023-01-04T02:05:30.899Z,101437.03
2023-01-04T02:08:33.969Z,101434.38
2023-01-04T02:11:36.743Z,101437.03
2023-01-04T02:14:42.167Z,101424.53
2023-01-04T02:17:53.020Z,101423.63
2023-01-04T02:21:02.582Z,101428.13
2023-01-04T02:24:32.340Z,101429.91
2023-01-04T02:27:47.482Z,101419.19
2023-01-04T02:31:17.834Z,101408.47
2023-01-04T02:34:30.999Z,101400.41
2023-01-04T02:37:41.436Z,101403.97
2023-01-04T02:40:50.617Z,101395.94
2023-01-04T02:44:16.605Z,101386.13
2023-01-04T02:47:47.894Z,101386.13
2023-01-04T02:50:54.279Z,101375.41
2023-01-04T02:53:59.348Z,101376.31
2023-01-04T02:57:16.089Z,101365.56
2023-01-04T03:01:01.847Z,101359.34
2023-01-04T03:04:32.689Z,101353.06
2023-01-04T03:07:52.433Z,101337.88
2023-01-04T03:11:00.873Z,101334.31
2023-01-04T03:14:31.594Z,101319.09
2023-01-04T03:17:34.523Z,101335.22
2023-01-04T03:20:38.623Z,101347.72
2023-01-04T03:24:07.492Z,101340.56
2023-01-04T03:27:24.408Z,101335.22
2023-01-04T03:30:49.105Z,101338.78
2023-01-04T03:34:09.980Z,101319.09
2023-01-04T03:37:19.800Z,101322.66
2023-01-04T03:40:49.532Z,101319.97
2023-01-04T03:44:16.774Z,101316.41
2023-01-04T03:47:44.629Z,101310.13
2023-01-04T03:50:52.980Z,101310.91
2023-01-04T03:54:04.092Z,101294.78
2023-01-04T03:57:09.230Z,101311.66
2023-01-04T04:00:16.268Z,101288.34
2023-01-04T04:03:19.456Z,101308.75
2023-01-04T04:06:39.690Z,101297.94
2023-01-04T04:09:43.917Z,101288.09
2023-01-04T04:12:48.910Z,101271.97
2023-01-04T04:15:55.046Z,101267.41
2023-01-04T04:18:59.860Z,101269.03
2023-01-04T04:22:08.272Z,101265.28
2023-01-04T04:25:15.487Z,101267.91
2023-01-04T04:28:18.207Z,101270.47
2023-01-04T04:31:22.126Z,101258.75
2023-01-04T04:34:24.889Z,101265.84
2023-01-04T04:37:30.364Z,101253.22
2023-01-04T04:40:53.772Z,101196.09
2023-01-04T04:43:56.618Z,101246.81
2023-01-04T04:46:59.427Z,101251.28
2023-01-04T04:50:04.284Z,101241.31
2023-01-04T04:53:07.021Z,101234.06
2023-01-04T04:56:11.591Z,101232.25
2023-01-04T04:59:14.400Z,101229.47
2023-01-04T05:02:17.572Z,101224.06
2023-01-04T05:05:20.474Z,101230.34
2023-01-04T05:08:23.344Z,101220.41
2023-01-04T05:11:41.449Z,101232.03
2023-01-04T05:14:46.028Z,101214.00
2023-01-04T05:17:48.761Z,101210.31
2023-01-04T05:20:51.779Z,101208.47
2023-01-04T05:23:54.579Z,101203.06
2023-01-04T05:27:04.832Z,101207.47
2023-01-04T05:30:30.220Z,101197.53
2023-01-04T05:33:34.249Z,101175.03
2023-01-04T05:36:36.960Z,101166.97
2023-01-04T05:39:39.638Z,101156.03
2023-01-04T05:42:44.274Z,101170.38
2023-01-04T05:45:50.197Z,101165.88
2023-01-04T05:48:53.146Z,101149.63
2023-01-04T05:51:55.871Z,101155.00
2023-01-04T05:54:58.680Z,101148.72
2023-01-04T05:58:02.798Z,101149.34
2023-01-04T06:01:07.698Z,101137.63
2023-01-04T06:04:10.695Z,101134.00
2023-01-04T06:07:13.807Z,101128.53
2023-01-04T06:10:19.350Z,101132.97
2023-01-04T06:13:23.542Z,101132.91
2023-01-04T06:16:26.381Z,101141.06
2023-01-04T06:19:29.487Z,101130.22
2023-01-04T06:22:32.874Z,101114.94
2023-01-04T06:25:35.654Z,101118.59
2023-01-04T06:28:41.222Z,101101.44
2023-01-04T06:31:44.414Z,101094.50
2023-01-04T06:34:47.287Z,101101.69
2023-01-04T06:37:50.071Z,101117.56
2023-01-04T06:40:52.814Z,101120.34
2023-01-04T06:43:56.907Z,101102.31
2023-01-04T06:46:59.644Z,101108.59
2023-01-04T06:50:02.354Z,101119.44
2023-01-04T06:53:05.156Z,101105.00
2023-01-04T06:56:09.265Z,101111.38
2023-01-04T06:59:13.410Z,101096.03
2023-01-04T07:02:17.459Z,101096.00
2023-01-04T07:05:20.242Z,101095.03
2023-01-04T07:08:23.517Z,101067.31
2023-01-04T07:11:30.856Z,101077.88
2023-01-04T07:14:35.013Z,101075.00
2023-01-04T07:17:37.842Z,101076.91
2023-01-04T07:20:40.745Z,101065.94
2023-01-04T07:23:44.288Z,101055.16
2023-01-04T07:26:47.235Z,101042.56
2023-01-04T07:29:51.259Z,101039.88
2023-01-04T07:32:55.709Z,101014.81
2023-01-04T07:36:03.390Z,101002.22
2023-01-04T07:39:06.486Z,100996.88
2023-01-04T07:42:09.265Z,100977.88
2023-01-04T07:45:13.392Z,101003.16
2023-01-04T07:48:16.321Z,100993.88
2023-01-04T07:51:19.046Z,101023.50
2023-01-04T07:54:21.921Z,101012.72
2023-01-04T07:57:24.738Z,100991.97
2023-01-04T08:00:28.850Z,100996.28
2023-01-04T08:03:31.594Z,100987.22
2023-01-04T08:06:37.170Z,100991.66
2023-01-04T08:09:40.194Z,100995.16
2023-01-04T08:12:42.897Z,101001.19
2023-01-04T08:15:53.620Z,100999.44
2023-01-04T08:18:57.591Z,101000.31
2023-01-04T08:22:00.290Z,100986.78
2023-01-04T08:25:06.086Z,100974.16
2023-01-04T08:28:09.242Z,100990.25
2023-01-04T08:31:24.820Z,100991.88
2023-01-04T08:34:27.567Z,100989.09
2023-01-04T08:37:31.908Z,100995.22
2023-01-04T08:41:00.084Z,101008.72
2023-01-04T08:43:57.293Z,101020.25
2023-01-04T08:47:15.972Z,101013.75
2023-01-04T08:50:20.450Z,101012.84
2023-01-04T08:53:23.560Z,101016.59
2023-01-04T08:56:26.271Z,101024.41
2023-01-04T08:59:29.804Z,100974.81
2023-01-04T09:02:33.964Z,100989.94
2023-01-04T09:05:36.854Z,100986.28
2023-01-04T09:08:41.042Z,100994.28
2023-01-04T09:11:43.938Z,100997.03
2023-01-04T09:14:46.784Z,100998.69
2023-01-04T09:18:29.352Z,100998.53
2023-01-04T09:21:16.936Z,100970.13
2023-01-04T09:24:19.827Z,100991.25
2023-01-04T09:27:24.820Z,100985.66
2023-01-04T09:30:34.765Z,100994.63
2023-01-04T09:34:12.191Z,100989.19
2023-01-04T09:37:01.690Z,100962.91
2023-01-04T09:40:05.607Z,100973.72
2023-01-04T09:43:21.248Z,100987.19
2023-01-04T09:46:35.604Z,100971.88
2023-01-04T09:49:45.172Z,100982.53
2023-01-04T09:53:06.975Z,100972.00
2023-01-04T09:56:15.057Z,100989.94
2023-01-04T09:59:22.469Z,100994.25
2023-01-04T10:02:31.461Z,100987.88
2023-01-04T10:05:36.197Z,100976.06
2023-01-04T10:08:39.470Z,100979.56
2023-01-04T10:11:56.596Z,100969.63
2023-01-04T10:15:12.103Z,100971.22
2023-01-04T10:21:55.289Z,100988.94
2023-01-04T10:25:08.665Z,100969.72
2023-01-04T10:28:38.127Z,100969.66
2023-01-04T10:31:47.177Z,100972.25
2023-01-04T10:34:50.820Z,100957.84
2023-01-04T10:37:59.684Z,100943.25
2023-01-04T10:41:08.287Z,100945.94
2023-01-04T10:44:18.302Z,100938.75
2023-01-04T10:47:27.301Z,100928.78
2023-01-04T10:50:37.335Z,100943.25
2023-01-04T10:53:47.436Z,100941.63
2023-01-04T10:56:58.632Z,100937.19
2023-01-04T11:00:08.164Z,100938.09
2023-01-04T11:03:17.475Z,100936.22
2023-01-04T11:06:43.754Z,100920.03
2023-01-04T11:09:53.110Z,100927.78
2023-01-04T11:12:55.885Z,100916.94
2023-01-04T11:16:02.323Z,100920.56
2023-01-04T11:19:07.680Z,100916.13
2023-01-04T11:22:16.715Z,100913.41
2023-01-04T11:25:38.731Z,100911.47
2023-01-04T11:28:53.679Z,100899.00
2023-01-04T11:32:02.111Z,100905.31
2023-01-04T11:35:05.288Z,100902.63
2023-01-04T11:38:14.232Z,100907.03
2023-01-04T11:41:20.372Z,100884.44
2023-01-04T11:44:24.035Z,100892.50
2023-01-04T11:47:31.499Z,100875.25
2023-01-04T11:50:40.052Z,100874.22
2023-01-04T11:53:42.850Z,100876.88
2023-01-04T11:57:06.155Z,100868.72
2023-01-04T12:00:17.037Z,100866.78
2023-01-04T12:03:27.496Z,100868.44
2023-01-04T12:06:37.666Z,100870.22
2023-01-04T12:09:40.612Z,100866.78
2023-01-04T12:12:44.681Z,100856.84
2023-01-04T12:15:59.100Z,100850.56
2023-01-04T12:19:01.840Z,100852.31
2023-01-04T12:22:06.502Z,100854.09
2023-01-04T12:25:25.727Z,100853.16
2023-01-04T12:28:39.756Z,100846.00
2023-01-04T12:31:42.770Z,100844.94
2023-01-04T12:34:46.644Z,100801.56
2023-01-04T12:37:49.704Z,100813.00
2023-01-04T12:40:56.553Z,100807.44
2023-01-04T12:44:02.125Z,100805.19
2023-01-04T12:47:25.466Z,100807.72
2023-01-04T12:50:31.109Z,100800.09
2023-01-04T12:53:57.471Z,100789.72
2023-01-04T12:57:25.248Z,100773.44
2023-01-04T13:01:25.977Z,100782.50
2023-01-04T13:04:31.952Z,100767.84
2023-01-04T13:07:43.720Z,100768.72
2023-01-04T13:10:51.518Z,100751.81
2023-01-04T13:14:00.065Z,100773.25
2023-01-04T13:17:15.968Z,100768.81
2023-01-04T13:20:22.200Z,100758.13
2023-01-04T13:23:27.748Z,100734.31
2023-01-04T13:26:43.222Z,100762.56
2023-01-04T13:29:46.707Z,100734.03
2023-01-04T13:33:24.339Z,100749.13
2023-01-04T13:36:13.758Z,100723.91
2023-01-04T13:39:16.722Z,100736.66
2023-01-04T13:42:25.700Z,100737.81
2023-01-04T13:46:06.460Z,100731.66
2023-01-04T13:49:15.839Z,100735.31
2023-01-04T13:55:51.299Z,100730.03
2023-01-04T13:58:54.356Z,100724.44
2023-01-04T14:01:57.210Z,100703.66
2023-01-04T14:05:01.637Z,100715.44
2023-01-04T14:08:05.245Z,100707.16
2023-01-04T14:11:36.759Z,100708.25
2023-01-04T14:14:48.798Z,100711.69
2023-01-04T14:17:53.874Z,100713.31
2023-01-04T14:20:58.376Z,100689.63
2023-01-04T14:24:01.087Z,100709.28
2023-01-04T14:27:31.099Z,100699.53
2023-01-04T14:30:33.969Z,100686.59
2023-01-04T14:33:42.019Z,100699.44
2023-01-04T14:36:46.211Z,100678.91
2023-01-04T14:39:49.821Z,100680.63
2023-01-04T14:42:52.547Z,100695.13
2023-01-04T14:45:56.833Z,100695.00
2023-01-04T14:49:00.289Z,100693.03
2023-01-04T14:52:12.080Z,100671.59
2023-01-04T14:55:16.065Z,100674.97
2023-01-04T14:58:18.846Z,100672.25
2023-01-04T15:01:21.942Z,100681.22
2023-01-04T15:04:25.342Z,100658.00
2023-01-04T15:07:35.986Z,100648.00
2023-01-04T15:10:39.057Z,100643.81
2023-01-04T15:13:42.327Z,100645.53
2023-01-04T15:16:45.814Z,100637.53
2023-01-04T15:19:54.713Z,100675.41
2023-01-04T15:23:00.827Z,100643.63
2023-01-04T15:26:05.862Z,100659.97
2023-01-04T15:29:09.936Z,100650.81
2023-01-04T15:32:12.932Z,100666.06
2023-01-04T15:35:17.263Z,100669.59
2023-01-04T15:38:21.311Z,100668.72
2023-01-04T15:41:41.807Z,100649.00
2023-01-04T15:44:44.579Z,100666.94
2023-01-04T15:47:47.271Z,100670.59
2023-01-04T15:50:49.989Z,100665.28
2023-01-04T15:53:58.207Z,100653.53
2023-01-04T15:57:01.034Z,100667.06
2023-01-04T16:00:04.571Z,100666.94
2023-01-04T16:03:07.488Z,100656.03
2023-01-04T16:06:12.932Z,100649.88
2023-01-04T16:09:17.100Z,100662.28
2023-01-04T16:12:39.483Z,100656.78
2023-01-04T16:15:42.278Z,100636.91
2023-01-04T16:18:47.197Z,100638.59
2023-01-04T16:21:49.934Z,100648.38
2023-01-04T16:25:11.293Z,100633.78
2023-01-04T16:28:14.877Z,100639.06
2023-01-04T16:31:20.944Z,100638.00
2023-01-04T16:34:26.243Z,100630.59
2023-01-04T16:37:32.854Z,100634.22
2023-01-04T16:40:37.009Z,100626.09
2023-01-04T16:43:45.175Z,100618.72
2023-01-04T16:46:50.209Z,100620.47
2023-01-04T16:49:53.457Z,100616.69
2023-01-04T16:52:56.158Z,100622.00
2023-01-04T16:56:04.325Z,100620.22
2023-01-04T16:59:08.280Z,100620.97
2023-01-04T17:02:12.139Z,100611.28
2023-01-04T17:05:15.026Z,100612.72
2023-01-04T17:08:27.046Z,100594.66
2023-01-04T17:15:23.844Z,100588.88
2023-01-04T17:18:22.579Z,100588.00
2023-01-04T17:21:35.822Z,100574.38
2023-01-04T17:24:38.792Z,100595.13
2023-01-04T17:27:42.831Z,100601.47
2023-01-04T17:30:45.557Z,100602.25
2023-01-04T17:33:49.240Z,100586.16
2023-01-04T17:36:51.957Z,100593.16
2023-01-04T17:39:54.862Z,100598.69
2023-01-04T17:43:03.461Z,100577.41
2023-01-04T17:46:08.478Z,100576.63
2023-01-04T17:49:32.171Z,100591.31
2023-01-04T17:52:35.498Z,100584.03
2023-01-04T17:55:38.366Z,100591.31
2023-01-04T17:58:43.205Z,100576.72
2023-01-04T18:01:45.962Z,100581.16
2023-01-04T18:04:50.894Z,100566.56
2023-01-04T18:07:53.645Z,100580.09
2023-01-04T18:11:07.388Z,100552.06
2023-01-04T18:14:14.507Z,100550.19
2023-01-04T18:17:23.857Z,100554.63
2023-01-04T18:20:26.986Z,100556.34
2023-01-04T18:23:30.364Z,100573.38
2023-01-04T18:26:41.886Z,100552.69
2023-01-04T18:29:57.245Z,100563.53
2023-01-04T18:32:59.954Z,100555.34
2023-01-04T18:36:03.703Z,100558.88
2023-01-04T18:39:06.440Z,100541.72
2023-01-04T18:42:12.194Z,100549.75
2023-01-04T18:45:16.662Z,100544.34
2023-01-04T18:48:19.578Z,100547.81
2023-01-04T18:51:23.007Z,100572.16
2023-01-04T18:54:26.022Z,100551.28
2023-01-04T18:57:28.978Z,100562.94
2023-01-04T19:00:33.066Z,100558.34
2023-01-04T19:03:40.085Z,100555.84
2023-01-04T19:06:43.232Z,100555.69
2023-01-04T19:09:46.042Z,100576.47
2023-01-04T19:12:52.050Z,100569.16
2023-01-04T19:15:56.331Z,100571.66
2023-01-04T19:18:59.676Z,100580.00
2023-01-04T19:22:02.593Z,100562.88
2023-01-04T19:25:06.987Z,100527.53
2023-01-04T19:28:11.551Z,100572.72
2023-01-04T19:31:16.627Z,100554.00
2023-01-04T19:34:19.418Z,100562.69
2023-01-04T19:37:22.160Z,100574.31
2023-01-04T19:40:24.914Z,100567.00
2023-01-04T19:43:27.771Z,100569.72
2023-01-04T19:46:32.133Z,100575.97
2023-01-04T19:49:42.088Z,100586.81
2023-01-04T19:52:45.366Z,100575.81
2023-01-04T19:55:51.159Z,100586.75
2023-01-04T19:58:53.936Z,100576.78
2023-01-04T20:01:58.259Z,100573.19
2023-01-04T20:05:02.257Z,100577.59
2023-01-04T20:08:05.351Z,100564.03
2023-01-04T20:11:15.094Z,100558.66
2023-01-04T20:14:17.870Z,100554.28
2023-01-04T20:17:22.083Z,100550.19
2023-01-04T20:20:25.036Z,100552.63
2023-01-04T20:23:27.831Z,100549.13
2023-01-04T20:26:33.553Z,100565.41
2023-01-04T20:29:39.748Z,100567.97
2023-01-04T20:32:44.108Z,100571.50
2023-01-04T20:35:49.156Z,100565.13
2023-01-04T20:38:53.271Z,100559.66
2023-01-04T20:42:13.396Z,100548.53
2023-01-04T20:45:17.061Z,100567.50
2023-01-04T20:48:22.076Z,100559.34
2023-01-04T20:51:27.909Z,100544.84
2023-01-04T20:54:30.611Z,100532.06
2023-01-04T20:57:33.451Z,100533.56
2023-01-04T21:00:39.078Z,100544.69
2023-01-04T21:03:47.109Z,100559.19
2023-01-04T21:06:49.851Z,100559.19
2023-01-04T21:09:52.604Z,100557.53
2023-01-04T21:12:55.296Z,100559.34
2023-01-04T21:15:58.462Z,100561.09
2023-01-04T21:19:02.975Z,100550.13
2023-01-04T21:22:05.775Z,100575.34
2023-01-04T21:25:09.379Z,100568.91
2023-01-04T21:28:13.818Z,100552.63
2023-01-04T21:31:18.452Z,100575.22
2023-01-04T21:34:23.185Z,100566.09
2023-01-04T21:37:26.476Z,100564.22
2023-01-04T21:40:29.656Z,100559.72
2023-01-04T21:43:32.343Z,100573.28
2023-01-04T21:46:35.164Z,100543.47
2023-01-04T21:49:43.666Z,100553.38
2023-01-04T21:52:46.954Z,100556.00
2023-01-04T21:55:58.480Z,100552.47
2023-01-04T21:59:02.127Z,100554.19
2023-01-04T22:02:05.176Z,100554.84
2023-01-04T22:05:09.969Z,100547.66
2023-01-04T22:08:12.669Z,100534.97
2023-01-04T22:11:16.923Z,100540.34
2023-01-04T22:14:20.038Z,100522.06
2023-01-04T22:17:22.763Z,100533.69
2023-01-04T22:20:26.950Z,100519.25
2023-01-04T22:23:30.351Z,100527.31
2023-01-04T22:26:34.279Z,100517.28
2023-01-04T22:29:38.283Z,100521.69
2023-01-04T22:32:45.214Z,100516.28
2023-01-04T22:35:49.369Z,100500.25
2023-01-04T22:38:53.309Z,100486.25
2023-01-04T22:41:55.996Z,100519.94
2023-01-04T22:44:58.752Z,100511.81
2023-01-04T22:48:01.979Z,100494.13
2023-01-04T22:51:10.115Z,100502.72
2023-01-04T22:54:14.964Z,100494.66
2023-01-04T22:57:17.734Z,100502.78
2023-01-04T23:00:20.475Z,100513.81
2023-01-04T23:03:23.255Z,100520.28
2023-01-04T23:06:28.629Z,100521.16
2023-01-04T23:09:31.322Z,100518.66
2023-01-04T23:12:34.058Z,100515.00
2023-01-04T23:15:37.653Z,100505.16
2023-01-04T23:18:40.448Z,100504.25
2023-01-04T23:21:44.638Z,100502.53
2023-01-04T23:24:47.366Z,100516.09
2023-01-04T23:27:50.112Z,100498.53
2023-01-04T23:30:52.811Z,100496.34
2023-01-04T23:33:57.023Z,100490.13
2023-01-04T23:37:01.118Z,100488.28
2023-01-04T23:40:05.220Z,100482.03
2023-01-04T23:43:07.919Z,100490.19
2023-01-04T23:46:13.852Z,100476.56
2023-01-04T23:49:18.951Z,100482.03
2023-01-04T23:52:24.193Z,100484.75
2023-01-04T23:55:26.911Z,100476.56
2023-01-04T23:58:31.506Z,100454.34
